York, Maine
Current Conditions -  °F | °C
As of 2:58 PM on Wednesday 28 Jan 2015 (Local Time) from KPSM Reporting Station
Broken Clouds Broken Clouds  
Wind Chill: 13°   Ceiling: 15000
Heat Index: 24°   Visibility: 10mi
Dew Point:   Wind: 10mph
Humidity: 51%   Direction: 280°W
Pressure: 29.97"   Gusts: NA
Location:  43.15°N, 70.65°W
Report Text: KPSM 281958Z 28009KT 10SM BKN150 M04/M13 A2997 RMK AO2A SLP154 T10451132
Loading
Personal Weather Stations






























Interactive Weather Map New forecast layout! Learn more

10-Day Weather Forecast

Advertisements
Track Severe Weather on mobile